• Join FlightAware (Why Join?)
  • Login
  • US Flag 
05:48PM EST


 

Airport Tracker/Info


-or-


 

Live Flight TrackerFlight Track Log ✈ ASQ4252 ✈ 24-Jul-2013 ✈ KORD - KXNA

Flight Track Log - Related Links

Times and Time Zones

All times are in EDT time to prevent confusion due to time zone crossing. See the ASQ4252 flight status page for this flight to view local times or setup timezone preferences in your user account.

Time Position Orientation Groundspeed Altitude Reporting Facility
EDT Latitude Longitude Course Direction KTS MPH feet Rate Location/Type
08:57AM 41.9500 -87.8333 194° South 240 276 4,400  Level Chicago TRACON
08:58AM 41.8839 -87.8658 200° South 285 328 5,000 960 Climbing Chicago Center
08:59AM 41.8100 -87.8969 197° South 282 325 6,200 2,220 Climbing Chicago Center
09:00AM 41.6800 -88.2841 197° South  Level Estimated
09:00AM 41.7411 -87.9442 207° Southwest 282 325 9,700  Level Chicago Center
09:01AM 41.5845 -88.2321 158° South  Level FlightAware Approximate
09:01AM 41.6681 -87.9956 208° Southwest 295 339 12,500  Level Chicago Center
09:02AM 41.5115 -88.3251 194° South  Level Estimated
09:02AM 41.5917 -88.0467 207° Southwest 307 353 14,800  Level Chicago Center
09:03AM 41.4817 -88.1011 200° South 361 415 16,200 1,320 Climbing Chicago Center
09:04AM 41.3856 -88.1483 200° South 387 445 17,600 1,320 Climbing Chicago Center
09:05AM 41.2819 -88.1994 200° South 401 461 19,000 1,620 Climbing Chicago Center
09:06AM 41.1544 -88.2639 201° Southwest 411 473 21,000 1,740 Climbing Chicago Center
09:07AM 41.0469 -88.3161 200° South 414 476 22,600 1,620 Climbing Chicago Center
09:08AM 40.9406 -88.3669 200° South 410 472 24,400 1,740 Climbing Chicago Center
09:09AM 40.8342 -88.4189 200° South 409 471 26,200 1,680 Climbing Chicago Center
09:10AM 40.7294 -88.4694 200° South 405 466 27,900 1,860 Climbing Chicago Center
09:11AM 40.6061 -88.5281 200° South 396 456 30,100 1,800 Climbing Chicago Center
09:12AM 40.5031 -88.5775 200° South 395 455 31,700 1,200 Climbing Chicago Center
09:13AM 40.4086 -88.6228 200° South 399 459 32,700 600 Climbing Chicago Center
09:14AM 40.3019 -88.6892 205° Southwest 425 489 33,000 540 Climbing Chicago Center
09:15AM 40.1992 -88.8181 224° Southwest 426 490 33,900 480 Climbing Chicago Center
09:16AM 40.1125 -88.9278 224° Southwest 431 496 34,000  Climbing Chicago Center
09:18AM 40.0239 -89.0428 225° Southwest 444 511 34,000  Level Chicago Center
09:18AM 39.9500 -89.1322 223° Southwest 444 511 34,000  Level Kansas City Center
09:19AM 39.8625 -89.2439 224° Southwest 441 507 34,000  Level Kansas City Center
09:20AM 39.7772 -89.3514 224° Southwest 432 497 34,000  Level Kansas City Center
09:21AM 39.6869 -89.4647 224° Southwest 423 487 34,000  Level Kansas City Center
09:22AM 39.6036 -89.5683 224° Southwest 418 481 34,000  Level Kansas City Center
09:23AM 39.5208 -89.6742 225° Southwest 418 481 34,000  Level Kansas City Center
09:24AM 39.4369 -89.7753 223° Southwest 416 479 34,000  Level Kansas City Center
09:25AM 39.3531 -89.8811 224° Southwest 419 482 34,000  Level Kansas City Center
09:27AM 39.2683 -89.9839 223° Southwest 419 482 34,000  Level Kansas City Center
09:28AM 39.1675 -90.1086 224° Southwest 421 484 34,000  Level Kansas City Center
09:29AM 39.0828 -90.2133 224° Southwest 423 487 34,000  Level Kansas City Center
09:30AM 38.9986 -90.3167 224° Southwest 422 486 34,000  Level Kansas City Center
09:31AM 38.9053 -90.4306 224° Southwest 420 483 34,000  Level Kansas City Center
09:32AM 38.8236 -90.5392 226° Southwest 421 484 34,000  Level Kansas City Center
09:33AM 38.7483 -90.6475 228° Southwest 404 465 34,000  Level Kansas City Center
09:34AM 38.6717 -90.7672 231° Southwest 415 478 34,000  Level Kansas City Center
09:35AM 38.5978 -90.8778 229° Southwest 414 476 34,000  Level Kansas City Center
09:36AM 38.5211 -90.9903 229° Southwest 418 481 34,000  Level Kansas City Center
09:37AM 38.4461 -91.1022 229° Southwest 418 481 34,000  Level Kansas City Center
09:38AM 38.3706 -91.2125 229° Southwest 416 479 34,000  Level Kansas City Center
09:39AM 38.2803 -91.3444 229° Southwest 415 478 34,000  Level Kansas City Center
09:40AM 38.2056 -91.4531 229° Southwest 408 470 34,000  Level Kansas City Center
09:41AM 38.1283 -91.5664 229° Southwest 415 478 34,000 -300 Level Kansas City Center
09:42AM 38.0508 -91.6772 228° Southwest 419 482 33,500 -960 Descending Kansas City Center
09:43AM 37.9739 -91.7894 229° Southwest 419 482 32,100 -1,440 Descending Kansas City Center
09:44AM 37.8944 -91.9044 229° Southwest 428 493 30,600 -1,440 Descending Kansas City Center
09:45AM 37.8136 -92.0197 228° Southwest 433 498 29,200 -1,560 Descending Kansas City Center
09:46AM 37.7225 -92.1486 228° Southwest 436 502 27,500 -1,440 Descending Kansas City Center
09:47AM 37.6508 -92.2528 229° Southwest 437 503 26,300 -1,500 Descending Kansas City Center
09:48AM 37.5531 -92.3944 229° Southwest 440 506 24,500 -1,620 Descending Kansas City Center
09:49AM 37.4703 -92.5111 228° Southwest 442 509 23,000 -1,380 Descending Kansas City Center
09:50AM 37.3878 -92.6286 229° Southwest 443 510 21,700 -1,260 Descending Kansas City Center
09:51AM 37.3064 -92.7386 227° Southwest 433 498 20,400 -1,260 Descending Kansas City Center
09:52AM 37.2256 -92.8503 228° Southwest 431 496 19,200 -1,260 Descending Kansas City Center
09:53AM 37.1456 -92.9611 228° Southwest 428 493 17,900 -1,200 Descending Kansas City Center
09:54AM 37.0672 -93.0708 228° Southwest 424 488 16,800 -1,260 Descending Kansas City Center
09:55AM 36.9928 -93.1747 228° Southwest 409 471 15,300 -1,620 Descending Kansas City Center
09:56AM 36.9078 -93.2922 228° Southwest 385 443 13,500 -1,380 Descending Kansas City Center
09:57AM 36.8433 -93.3731 225° Southwest 373 429 12,500 -1,020 Descending Kansas City Center
09:58AM 36.7706 -93.4661 226° Southwest 373 429 11,500 -1,020 Descending Kansas City Center
10:00AM 36.6958 -93.5597 225° Southwest 380 437 10,400 -780 Descending Kansas City Center
10:01AM 36.6069 -93.6711 225° Southwest 380 437 10,000 -240 Descending Kansas City Center
10:02AM 36.5533 -93.7692 236° Southwest 351 404 10,000 -720 Level Kansas City Center
10:03AM 36.5256 -93.8608 249° West 299 344 8,600 -1,500 Descending Kansas City Center
10:04AM 36.4967 -93.9472 247° West 280 322 6,900 -1,260 Descending Kansas City Center
10:05AM 36.4708 -94.0300 249° West 269 310 6,000 -780 Descending Kansas City Center
10:06AM 36.4406 -94.1292 249° West 260 299 5,300 -1,020 Descending Kansas City Center
10:07AM 36.4167 -94.2042 248° West 248 285 3,900 -1,200 Descending Kansas City Center
10:08AM 36.3956 -94.2739 249° West 230 265 2,900 -540 Descending Kansas City Center
10:09AM 36.4347 -94.3089 324° Northwest 229 264 2,900  Level Kansas City Center
10:10AM 36.4883 -94.3278 344° North 231 266 2,900  Level Kansas City Center
10:11AM 36.4456 -94.3764 222° Southwest 237 273 2,900  Level Kansas City Center